Time;durP1;ratioP1;P1;durP2;ratioP2;P2;SDS_P1;SDS_P2;PMS_P1;PMS_P2;Temp;Humidity;BMP_temperature;BMP_pressure;BME280_temperature;BME280_humidity;BME280_pressure;Samples;Min_cycle;Max_cycle;Signal;HPM_P1;HPM_P2
2022/04/02 00:01:42;;;;;;;2.77;2.40;;;12.50;46.40;;;;;;5088220;28;47001;-19
2022/04/02 00:04:10;;;;;;;2.37;2.17;;;12.50;46.40;;;;;;5088020;28;46811;-19
2022/04/02 00:06:37;;;;;;;2.43;2.23;;;12.50;46.40;;;;;;5088359;28;46906;-26
2022/04/02 00:09:03;;;;;;;2.50;2.30;;;12.50;46.50;;;;;;5087762;28;48823;-19
2022/04/02 00:11:30;;;;;;;2.47;2.27;;;12.50;46.50;;;;;;5088213;28;47185;-25
2022/04/02 00:13:58;;;;;;;2.80;2.60;;;12.50;46.40;;;;;;5087950;28;46863;-26
2022/04/02 00:16:25;;;;;;;3.00;2.80;;;12.50;46.40;;;;;;5088044;28;47071;-19
2022/04/02 00:18:51;;;;;;;3.07;2.57;;;12.60;46.40;;;;;;5087456;28;47846;-19
2022/04/02 00:21:20;;;;;;;2.57;2.37;;;12.60;46.40;;;;;;5087873;28;46918;-26
2022/04/02 00:23:46;;;;;;;2.87;2.67;;;12.60;46.40;;;;;;5087732;28;46878;-19
2022/04/02 00:26:15;;;;;;;2.87;2.67;;;12.60;46.40;;;;;;5088105;28;46977;-18
2022/04/02 00:28:42;;;;;;;3.10;2.37;;;12.60;46.40;;;;;;5087467;28;48160;-23
2022/04/02 00:31:10;;;;;;;3.17;2.70;;;12.60;46.30;;;;;;5087791;28;46917;-25
2022/04/02 00:33:37;;;;;;;3.20;2.53;;;12.60;46.30;;;;;;5087743;28;47106;-18
2022/04/02 00:36:04;;;;;;;3.87;2.77;;;12.60;46.30;;;;;;5087878;28;46889;-26
2022/04/02 00:38:32;;;;;;;3.17;2.87;;;12.60;46.30;;;;;;5087139;28;47970;-19
2022/04/02 00:40:59;;;;;;;2.90;2.70;;;12.60;46.30;;;;;;5087177;28;46882;-19
2022/04/02 00:43:26;;;;;;;2.97;2.70;;;12.60;46.20;;;;;;5087350;28;46964;-17
2022/04/02 00:45:53;;;;;;;3.13;2.83;;;12.60;46.20;;;;;;5087540;28;46909;-17
2022/04/02 00:48:20;;;;;;;3.20;2.90;;;12.60;46.20;;;;;;5086701;27;46850;-18
2022/04/02 00:50:47;;;;;;;3.20;3.00;;;12.60;46.20;;;;;;5087137;28;47407;-19
2022/04/02 00:53:14;;;;;;;2.97;2.70;;;12.50;46.20;;;;;;5086712;28;46969;-26
2022/04/02 00:55:42;;;;;;;3.20;2.87;;;12.60;46.30;;;;;;5087282;28;46975;-19
2022/04/02 00:58:10;;;;;;;3.43;3.13;;;12.60;46.20;;;;;;5087226;28;48188;-19
2022/04/02 01:00:37;;;;;;;3.40;3.10;;;12.50;46.20;;;;;;5087238;28;46818;-19
2022/04/02 01:03:04;;;;;;;3.00;2.80;;;12.50;46.30;;;;;;5087576;28;46964;-26
2022/04/02 01:05:30;;;;;;;3.47;3.13;;;12.50;46.30;;;;;;5087428;28;47289;-19
2022/04/02 01:07:57;;;;;;;3.30;3.00;;;12.50;46.20;;;;;;5086941;28;49057;-18
2022/04/02 01:10:24;;;;;;;3.37;3.10;;;12.50;46.20;;;;;;5086908;28;47183;-18
2022/04/02 01:12:52;;;;;;;3.40;3.00;;;12.50;46.20;;;;;;5087088;28;46956;-26
2022/04/02 01:15:19;;;;;;;3.37;3.00;;;12.50;46.30;;;;;;5087236;28;46976;-18
2022/04/02 01:17:46;;;;;;;3.23;2.93;;;12.50;46.20;;;;;;5086500;28;46846;-18
2022/04/02 01:20:13;;;;;;;3.53;3.17;;;12.50;46.20;;;;;;5087057;28;47766;-26
2022/04/02 01:22:41;;;;;;;3.40;3.10;;;12.50;46.30;;;;;;5086865;28;46888;-26
2022/04/02 01:25:08;;;;;;;3.30;3.00;;;12.50;46.20;;;;;;5086808;28;46920;-19
2022/04/02 01:27:35;;;;;;;3.37;3.07;;;12.50;46.20;;;;;;5086791;28;47262;-26
2022/04/02 01:30:02;;;;;;;3.47;3.17;;;12.50;46.20;;;;;;5086562;28;46984;-19
2022/04/02 01:32:29;;;;;;;2.90;2.70;;;12.50;46.10;;;;;;5086706;28;46865;-26
2022/04/02 01:34:55;;;;;;;3.30;2.80;;;12.60;46.20;;;;;;5087039;28;47228;-26
2022/04/02 01:37:22;;;;;;;3.50;3.20;;;12.60;46.20;;;;;;5086359;28;47072;-18
2022/04/02 01:39:50;;;;;;;3.00;2.80;;;12.60;46.20;;;;;;5086621;28;47420;-26
2022/04/02 01:42:20;;;;;;;3.60;3.30;;;12.60;46.20;;;;;;5086395;28;46992;-17
2022/04/02 01:44:51;;;;;;;3.00;2.80;;;12.60;46.10;;;;;;5086850;28;46898;-19
2022/04/02 01:47:18;;;;;;;2.90;2.70;;;12.60;46.10;;;;;;5086373;28;49100;-18
2022/04/02 01:49:44;;;;;;;2.60;2.40;;;12.60;46.10;;;;;;5086495;28;46913;-25
2022/04/02 01:52:11;;;;;;;3.00;2.80;;;12.60;46.10;;;;;;5086435;28;46908;-26
2022/04/02 01:54:38;;;;;;;3.57;3.27;;;12.60;46.10;;;;;;5086130;28;47179;-26
2022/04/02 01:57:06;;;;;;;3.27;2.97;;;12.60;46.10;;;;;;5086157;28;47075;-26
2022/04/02 01:59:33;;;;;;;2.70;2.50;;;12.60;46.10;;;;;;5086014;28;46962;-18
2022/04/02 02:02:00;;;;;;;3.30;3.00;;;12.60;46.00;;;;;;5085631;28;46933;-25
2022/04/02 02:04:27;;;;;;;3.63;3.20;;;12.60;46.10;;;;;;5086598;28;46885;-18
2022/04/02 02:06:53;;;;;;;3.53;3.20;;;12.60;46.10;;;;;;5086252;28;48892;-26
2022/04/02 02:09:20;;;;;;;3.20;3.00;;;12.60;46.10;;;;;;5086173;28;46860;-18
2022/04/02 02:11:47;;;;;;;3.43;3.13;;;12.60;46.10;;;;;;5086197;28;46902;-18
2022/04/02 02:14:15;;;;;;;3.37;3.07;;;12.60;46.00;;;;;;5085823;28;46981;-26
2022/04/02 02:16:42;;;;;;;3.57;3.27;;;12.60;46.00;;;;;;5085980;28;48743;-18
2022/04/02 02:19:08;;;;;;;3.30;3.00;;;12.60;46.00;;;;;;5085794;28;46877;-18
2022/04/02 02:21:35;;;;;;;3.20;2.90;;;12.50;46.00;;;;;;5086132;28;46936;-18
2022/04/02 02:24:02;;;;;;;3.40;3.10;;;12.50;46.00;;;;;;5086102;28;46904;-19
2022/04/02 02:26:29;;;;;;;3.17;2.87;;;12.50;46.10;;;;;;5085718;28;49045;-26
2022/04/02 02:28:56;;;;;;;3.00;2.70;;;12.50;46.10;;;;;;5085786;28;46930;-26
2022/04/02 02:31:24;;;;;;;3.57;3.20;;;12.50;46.10;;;;;;5086004;28;46991;-19
2022/04/02 02:36:35;;;;;;;3.07;2.87;;;12.50;46.10;;;;;;5082890;28;46919;-26
2022/04/02 02:39:01;;;;;;;2.93;2.63;;;12.50;46.10;;;;;;5085592;28;47006;-26
2022/04/02 02:41:28;;;;;;;3.20;2.90;;;12.50;46.10;;;;;;5085676;28;46902;-25
2022/04/02 02:43:55;;;;;;;3.37;3.07;;;12.50;46.10;;;;;;5085856;28;46822;-19
2022/04/02 02:46:21;;;;;;;3.37;2.53;;;12.50;46.00;;;;;;5085470;28;48118;-19
2022/04/02 02:48:49;;;;;;;2.80;2.60;;;12.50;46.00;;;;;;5085345;28;47421;-18
2022/04/02 02:51:16;;;;;;;3.00;2.70;;;12.50;46.00;;;;;;5085615;28;46917;-18
2022/04/02 02:53:44;;;;;;;2.67;2.47;;;12.40;46.00;;;;;;5084833;28;46931;-26
2022/04/02 02:56:10;;;;;;;2.57;2.37;;;12.40;46.00;;;;;;5085448;28;48200;-19
2022/04/02 02:58:37;;;;;;;2.50;2.30;;;12.40;46.00;;;;;;5085337;28;46895;-18
2022/04/02 03:01:05;;;;;;;2.77;2.57;;;12.40;46.00;;;;;;5085302;28;46830;-25
2022/04/02 03:03:32;;;;;;;2.60;2.40;;;12.40;46.10;;;;;;5085195;28;46948;-25
2022/04/02 03:06:00;;;;;;;2.70;2.50;;;12.40;46.10;;;;;;5085367;28;49075;-26
2022/04/02 03:08:27;;;;;;;3.00;2.70;;;12.40;46.10;;;;;;5085340;28;46959;-18
2022/04/02 03:10:54;;;;;;;2.50;2.30;;;12.40;46.00;;;;;;5085230;28;46940;-18
2022/04/02 03:13:21;;;;;;;2.80;2.60;;;12.40;46.00;;;;;;5088753;28;46850;-19
2022/04/02 03:15:48;;;;;;;2.77;2.57;;;12.40;46.00;;;;;;5088630;28;49108;-18
2022/04/02 03:18:15;;;;;;;2.50;2.30;;;12.40;46.00;;;;;;5088569;28;46896;-18
2022/04/02 03:20:42;;;;;;;2.87;2.60;;;12.40;46.00;;;;;;5088916;28;46751;-26
2022/04/02 03:23:10;;;;;;;3.10;2.80;;;12.30;46.00;;;;;;5088526;28;47124;-26
2022/04/02 03:25:37;;;;;;;3.47;2.50;;;12.30;46.00;;;;;;5088712;28;49048;-26
2022/04/02 03:28:05;;;;;;;3.07;2.37;;;12.30;46.00;;;;;;5088647;28;47252;-26
2022/04/02 03:30:31;;;;;;;2.37;2.17;;;12.30;46.00;;;;;;5088763;28;46862;-18
2022/04/02 03:32:58;;;;;;;2.60;2.40;;;12.30;46.00;;;;;;5088694;28;46935;-18
2022/04/02 03:35:25;;;;;;;2.77;2.57;;;12.30;46.10;;;;;;5088479;28;47836;-19
2022/04/02 03:37:52;;;;;;;2.97;2.20;;;12.30;46.10;;;;;;5088413;28;47405;-18
2022/04/02 03:40:21;;;;;;;2.50;2.30;;;12.30;46.10;;;;;;5088394;28;46815;-26
2022/04/02 03:42:48;;;;;;;2.40;2.20;;;12.30;46.10;;;;;;5088259;28;47289;-26
2022/04/02 03:45:16;;;;;;;2.97;2.03;;;12.30;46.20;;;;;;5088604;28;48080;-20
2022/04/02 03:47:42;;;;;;;2.00;1.90;;;12.30;46.10;;;;;;5088171;28;47256;-18
2022/04/02 03:50:09;;;;;;;2.03;1.93;;;12.20;46.10;;;;;;5088400;28;46850;-26
2022/04/02 03:52:36;;;;;;;2.30;2.10;;;12.20;46.10;;;;;;5088340;28;46879;-26
2022/04/02 03:55:04;;;;;;;2.57;2.37;;;12.20;46.10;;;;;;5088562;28;48807;-19
2022/04/02 03:57:33;;;;;;;2.07;1.97;;;12.20;46.10;;;;;;5088132;28;46973;-18
2022/04/02 03:59:59;;;;;;;2.43;2.23;;;12.20;46.10;;;;;;5088316;28;46890;-18
2022/04/02 04:02:26;;;;;;;2.00;1.90;;;12.20;46.10;;;;;;5088224;28;47200;-18
2022/04/02 04:04:53;;;;;;;2.30;2.00;;;12.20;46.10;;;;;;5088278;28;47865;-25
2022/04/02 04:07:20;;;;;;;1.90;1.70;;;12.20;46.10;;;;;;5088001;28;46952;-26
2022/04/02 04:09:47;;;;;;;1.97;1.87;;;12.20;46.00;;;;;;5088166;28;46985;-18
2022/04/02 04:12:14;;;;;;;2.10;1.93;;;12.20;46.00;;;;;;5088046;28;46919;-26
2022/04/02 04:14:42;;;;;;;1.80;1.70;;;12.20;46.10;;;;;;5087728;28;48110;-19
2022/04/02 04:17:09;;;;;;;2.60;2.10;;;12.20;46.10;;;;;;5087581;28;46885;-18
2022/04/02 04:19:36;;;;;;;1.80;1.70;;;12.20;46.10;;;;;;5088163;28;46814;-18
2022/04/02 04:22:06;;;;;;;1.87;1.77;;;12.20;46.00;;;;;;5087827;28;46889;-19
2022/04/02 04:24:33;;;;;;;1.83;1.73;;;12.20;46.00;;;;;;5087157;27;46906;-18
2022/04/02 04:26:59;;;;;;;2.13;1.93;;;12.20;46.70;;;;;;5087428;28;46768;-26
2022/04/02 04:29:26;;;;;;;2.00;1.80;;;12.30;46.10;;;;;;5087559;28;46835;-18
2022/04/02 04:31:54;;;;;;;1.87;1.77;;;12.30;46.00;;;;;;5088001;28;46915;-26
2022/04/02 04:34:21;;;;;;;1.83;1.73;;;12.30;46.00;;;;;;5087276;28;47863;-17
2022/04/02 04:36:48;;;;;;;2.20;2.00;;;12.30;46.00;;;;;;5087324;28;46856;-25
2022/04/02 04:39:15;;;;;;;1.80;1.70;;;12.30;46.10;;;;;;5087636;28;47361;-18
2022/04/02 04:41:42;;;;;;;1.60;1.50;;;12.30;46.10;;;;;;5087894;28;46885;-19
2022/04/02 04:44:08;;;;;;;1.93;1.80;;;12.30;46.00;;;;;;5087268;28;49124;-18
2022/04/02 04:46:35;;;;;;;1.83;1.73;;;12.30;46.00;;;;;;5087166;28;46859;-26
2022/04/02 04:49:03;;;;;;;1.90;1.80;;;12.30;46.10;;;;;;5087416;28;46783;-26
2022/04/02 04:51:30;;;;;;;1.50;1.40;;;12.20;46.00;;;;;;5087527;28;47151;-19
2022/04/02 04:53:57;;;;;;;1.70;1.60;;;12.20;46.00;;;;;;5086796;28;46904;-25
2022/04/02 04:56:23;;;;;;;1.60;1.50;;;12.20;46.00;;;;;;5087526;28;46977;-19
2022/04/02 04:58:50;;;;;;;1.70;1.60;;;12.20;46.00;;;;;;5087258;28;46916;-26
2022/04/02 05:01:17;;;;;;;1.80;1.60;;;12.20;46.00;;;;;;5087529;28;46967;-19
2022/04/02 05:03:43;;;;;;;1.63;1.53;;;12.20;45.90;;;;;;5086797;28;48801;-26
2022/04/02 05:06:12;;;;;;;1.50;1.40;;;12.20;46.00;;;;;;5087210;28;46880;-26
2022/04/02 05:08:38;;;;;;;1.23;1.20;;;12.20;46.00;;;;;;5087002;28;47031;-18
2022/04/02 05:11:05;;;;;;;1.73;1.63;;;12.20;46.00;;;;;;5087162;28;47088;-18
2022/04/02 05:13:32;;;;;;;1.70;1.60;;;12.20;45.90;;;;;;5086747;28;48996;-18
2022/04/02 05:15:59;;;;;;;1.47;1.37;;;12.20;45.90;;;;;;5086838;28;47403;-26
2022/04/02 05:18:25;;;;;;;1.80;1.70;;;12.20;46.00;;;;;;5086771;28;46940;-26
2022/04/02 05:20:52;;;;;;;1.57;1.47;;;12.20;46.00;;;;;;5087236;28;46900;-19
2022/04/02 05:23:20;;;;;;;1.50;1.40;;;12.20;46.00;;;;;;5086556;28;48035;-25
2022/04/02 05:25:47;;;;;;;2.83;1.60;;;12.20;46.00;;;;;;5086446;28;46914;-25
2022/04/02 05:28:13;;;;;;;4.10;1.73;;;12.20;46.10;;;;;;5086511;28;46970;-26
2022/04/02 05:30:41;;;;;;;1.43;1.33;;;12.10;46.00;;;;;;5086863;28;46854;-26
2022/04/02 05:33:07;;;;;;;2.87;1.43;;;12.20;46.00;;;;;;5086101;28;47897;-18
2022/04/02 05:35:34;;;;;;;1.63;1.53;;;12.10;46.00;;;;;;5085540;27;46869;-26
2022/04/02 05:38:01;;;;;;;1.63;1.53;;;12.10;46.10;;;;;;5086525;28;47012;-18
2022/04/02 05:40:29;;;;;;;1.60;1.50;;;12.10;46.10;;;;;;5087037;28;46962;-19
2022/04/02 05:42:56;;;;;;;1.77;1.67;;;12.10;46.00;;;;;;5086382;28;49059;-26
2022/04/02 05:45:22;;;;;;;1.60;1.50;;;12.10;46.10;;;;;;5086313;28;46882;-22
2022/04/02 05:47:50;;;;;;;1.70;1.60;;;12.10;46.10;;;;;;5086255;28;46934;-25
2022/04/02 05:50:17;;;;;;;1.67;1.57;;;12.00;46.10;;;;;;5086798;28;46891;-25
2022/04/02 05:52:44;;;;;;;1.83;1.73;;;12.10;46.20;;;;;;5086463;28;48870;-25
2022/04/02 05:55:11;;;;;;;1.50;1.40;;;12.00;46.10;;;;;;5086245;28;46902;-25
2022/04/02 05:57:40;;;;;;;1.80;1.70;;;12.00;46.10;;;;;;5086219;28;47028;-18
2022/04/02 06:00:08;;;;;;;1.90;1.50;;;12.10;46.10;;;;;;5086633;28;47266;-25
2022/04/02 06:02:35;;;;;;;1.63;1.53;;;12.10;46.10;;;;;;5085923;28;48846;-25
2022/04/02 06:05:02;;;;;;;1.40;1.30;;;12.10;46.10;;;;;;5086052;28;46909;-24
2022/04/02 06:07:28;;;;;;;1.40;1.30;;;12.10;46.10;;;;;;5086028;28;46805;-19
2022/04/02 06:09:55;;;;;;;2.63;1.70;;;12.10;46.00;;;;;;5086331;28;47234;-18
2022/04/02 06:12:22;;;;;;;1.50;1.40;;;12.20;46.00;;;;;;5085959;28;48006;-19
2022/04/02 06:14:50;;;;;;;1.53;1.43;;;12.20;46.00;;;;;;5086298;28;47436;-25
2022/04/02 06:17:17;;;;;;;1.57;1.47;;;12.20;46.00;;;;;;5086012;28;46778;-25
2022/04/02 06:19:43;;;;;;;1.40;1.30;;;12.20;46.00;;;;;;5086124;28;46850;-25
2022/04/02 06:22:10;;;;;;;1.20;1.20;;;12.20;45.90;;;;;;5085915;28;47906;-25
2022/04/02 06:24:37;;;;;;;1.40;1.30;;;12.20;46.00;;;;;;5085994;28;47013;-17
2022/04/02 06:27:04;;;;;;;1.60;1.50;;;12.20;45.90;;;;;;5085905;28;46879;-18
2022/04/02 06:29:31;;;;;;;1.60;1.50;;;12.20;46.10;;;;;;5086388;28;46873;-19
2022/04/02 06:31:59;;;;;;;1.50;1.40;;;12.30;46.80;;;;;;5085517;28;47063;-24
2022/04/02 06:34:25;;;;;;;1.60;1.50;;;12.20;46.30;;;;;;5085510;28;46874;-19
2022/04/02 06:36:53;;;;;;;1.70;1.60;;;12.20;46.20;;;;;;5085880;28;46927;-19
2022/04/02 06:39:20;;;;;;;1.50;1.40;;;12.30;46.40;;;;;;5091384;27;46983;-24
2022/04/02 06:41:47;;;;;;;6.00;1.60;;;12.40;46.70;;;;;;5106076;27;47067;-24
2022/04/02 06:44:13;;;;;;;5.63;1.40;;;12.40;46.80;;;;;;5105856;27;47170;-24
2022/04/02 06:46:41;;;;;;;1.60;1.50;;;12.40;47.00;;;;;;5105563;27;46868;-24
2022/04/02 06:49:10;;;;;;;1.60;1.50;;;12.50;47.60;;;;;;5105801;27;46849;-19
2022/04/02 06:51:37;;;;;;;2.07;1.60;;;12.50;47.40;;;;;;5098282;27;49236;-25
2022/04/02 06:54:05;;;;;;;2.13;1.80;;;12.60;47.40;;;;;;5084702;28;46888;-19
2022/04/02 06:56:31;;;;;;;5.53;1.90;;;12.60;47.30;;;;;;5085351;28;46956;-24
2022/04/02 06:58:58;;;;;;;2.07;1.60;;;12.70;47.40;;;;;;5085263;28;46917;-25
2022/04/02 07:01:25;;;;;;;2.80;1.77;;;12.70;47.30;;;;;;5085384;28;48941;-19
2022/04/02 07:03:52;;;;;;;2.63;1.70;;;12.80;47.30;;;;;;5084957;28;46866;-24
2022/04/02 07:06:20;;;;;;;1.87;1.77;;;12.80;47.30;;;;;;5085122;28;46832;-19
2022/04/02 07:08:47;;;;;;;1.63;1.53;;;12.80;47.30;;;;;;5084947;28;46873;-25
2022/04/02 07:11:14;;;;;;;1.70;1.60;;;12.90;47.30;;;;;;5085307;28;47356;-24
2022/04/02 07:13:40;;;;;;;1.60;1.50;;;12.90;47.30;;;;;;5084965;28;47128;-19
2022/04/02 07:16:07;;;;;;;1.43;1.30;;;12.90;47.80;;;;;;5083608;28;46848;-19
2022/04/02 07:18:34;;;;;;;2.53;1.60;;;13.00;47.40;;;;;;5068729;28;46951;-19
2022/04/02 07:21:02;;;;;;;1.60;1.50;;;13.00;48.00;;;;;;5064036;28;47057;-19
2022/04/02 07:23:30;;;;;;;1.47;1.37;;;13.00;47.20;;;;;;5064584;28;46942;-19
2022/04/02 07:25:57;;;;;;;3.30;1.60;;;13.00;47.10;;;;;;5064822;28;46889;-19
2022/04/02 07:28:25;;;;;;;3.77;1.60;;;13.00;47.00;;;;;;5065080;28;46849;-20
2022/04/02 07:30:52;;;;;;;3.93;1.53;;;13.10;47.00;;;;;;5064389;28;48203;-19
2022/04/02 07:33:18;;;;;;;1.60;1.50;;;13.00;46.90;;;;;;5086561;27;46994;-19
2022/04/02 07:35:49;;;;;;;3.03;1.60;;;13.10;46.90;;;;;;5105279;27;46927;-19
2022/04/02 07:38:20;;;;;;;1.53;1.40;;;13.10;46.80;;;;;;5104725;27;47360;-19
2022/04/02 07:40:50;;;;;;;2.93;1.47;;;13.20;46.80;;;;;;5105042;27;48826;-19
2022/04/02 07:43:25;;;;;;;1.83;1.27;;;13.20;46.70;;;;;;5104830;27;46973;-18
2022/04/02 07:46:00;;;;;;;2.00;1.47;;;13.20;46.50;;;;;;5104426;27;46993;-25
2022/04/02 07:48:27;;;;;;;1.30;1.20;;;13.20;46.50;;;;;;5101279;27;46893;-19
2022/04/02 07:50:54;;;;;;;2.47;1.20;;;13.30;46.40;;;;;;5105205;27;48053;-19
2022/04/02 07:53:23;;;;;;;1.43;1.40;;;13.30;46.30;;;;;;5104882;27;46862;-19
2022/04/02 07:55:52;;;;;;;1.53;1.43;;;13.30;46.30;;;;;;5105086;27;46873;-19
2022/04/02 07:58:20;;;;;;;1.57;1.30;;;13.30;46.20;;;;;;5104841;27;47091;-25
2022/04/02 08:00:49;;;;;;;1.57;1.47;;;13.30;46.20;;;;;;5108698;27;47977;-19
2022/04/02 08:03:16;;;;;;;2.73;1.20;;;13.40;46.20;;;;;;5108451;27;46999;-24
2022/04/02 08:05:43;;;;;;;3.07;1.30;;;13.40;46.20;;;;;;5096017;27;46855;-19
2022/04/02 08:08:10;;;;;;;1.43;1.33;;;13.40;46.40;;;;;;5087899;28;46916;-18
2022/04/02 08:10:37;;;;;;;2.43;1.37;;;13.40;46.60;;;;;;5087850;28;46829;-24
2022/04/02 08:13:05;;;;;;;1.43;1.33;;;13.40;46.70;;;;;;5087637;28;47509;-18
2022/04/02 08:15:32;;;;;;;2.90;1.50;;;13.50;47.00;;;;;;5087443;28;46910;-18
2022/04/02 08:18:01;;;;;;;2.87;1.90;;;13.50;46.80;;;;;;5087825;28;46955;-18
2022/04/02 08:20:28;;;;;;;5.40;2.10;;;13.40;45.80;;;;;;5087597;28;48770;-19
2022/04/02 08:22:56;;;;;;;2.73;2.10;;;13.30;45.20;;;;;;5087493;28;46926;-24
2022/04/02 08:25:22;;;;;;;1.83;1.73;;;13.00;45.20;;;;;;5087874;28;46873;-26
2022/04/02 08:27:55;;;;;;;2.20;2.10;;;12.90;45.70;;;;;;5087660;28;46827;-24
2022/04/02 08:30:28;;;;;;;2.20;2.00;;;12.70;45.90;;;;;;5087805;28;49050;-24
2022/04/02 08:33:16;;;;;;;3.80;1.97;;;12.70;46.10;;;;;;5087177;28;47112;-25
2022/04/02 08:36:01;;;;;;;2.50;2.30;;;12.50;46.20;;;;;;5087798;28;46853;-24
2022/04/02 08:38:32;;;;;;;2.00;1.80;;;12.30;46.50;;;;;;5087212;28;46955;-18
2022/04/02 08:41:41;;;;;;;7.53;2.63;;;12.30;46.80;;;;;;5086878;28;47840;-18
2022/04/02 08:44:34;;;;;;;3.07;2.50;;;12.10;46.80;;;;;;5086693;28;47006;-24
2022/04/02 08:47:26;;;;;;;2.67;2.43;;;12.00;47.20;;;;;;5087046;28;46874;-19
2022/04/02 08:50:03;;;;;;;2.10;2.00;;;11.90;47.70;;;;;;5087391;28;46898;-24
2022/04/02 08:52:34;;;;;;;3.13;2.40;;;11.80;47.70;;;;;;5087108;28;49036;-19
2022/04/02 08:55:08;;;;;;;2.13;1.93;;;11.70;47.90;;;;;;5085638;28;46867;-18
2022/04/02 08:58:01;;;;;;;4.43;2.27;;;11.70;48.10;;;;;;5086578;28;47037;-24
2022/04/02 09:00:28;;;;;;;5.27;2.40;;;11.70;48.20;;;;;;5059126;28;47376;-24
2022/04/02 09:03:32;;;;;;;2.90;2.10;;;11.70;48.00;;;;;;5086233;28;48209;-20
2022/04/02 09:06:12;;;;;;;2.37;2.00;;;11.60;48.00;;;;;;5061734;28;47081;-17
2022/04/02 09:08:50;;;;;;;2.50;1.70;;;11.60;48.00;;;;;;5085900;28;47286;-23
2022/04/02 09:11:22;;;;;;;3.53;1.90;;;11.70;48.10;;;;;;5086060;28;46957;-17
2022/04/02 09:14:16;;;;;;;3.90;1.80;;;11.80;48.00;;;;;;5085870;28;47096;-17
2022/04/02 09:17:01;;;;;;;4.63;1.57;;;12.00;48.10;;;;;;5085924;28;47408;-17
2022/04/02 09:19:31;;;;;;;6.67;1.83;;;12.10;47.90;;;;;;5086020;28;46944;-19
2022/04/02 09:22:07;;;;;;;6.00;1.53;;;12.30;47.80;;;;;;5086690;28;46981;-25
2022/04/02 09:25:00;;;;;;;11.57;1.80;;;12.40;47.70;;;;;;5086865;28;49092;-25
2022/04/02 09:27:50;;;;;;;3.03;1.40;;;12.50;47.60;;;;;;5058366;28;47257;-25
2022/04/02 09:30:19;;;;;;;4.37;1.30;;;12.60;47.50;;;;;;5086606;28;46782;-17
2022/04/02 09:33:22;;;;;;;9.73;2.23;;;12.60;47.30;;;;;;5086807;28;47160;-17
2022/04/02 09:35:57;;;;;;;7.37;1.50;;;12.70;47.60;;;;;;5085903;28;46903;-18
2022/04/02 09:39:02;;;;;;;10.20;2.23;;;12.80;47.50;;;;;;5086094;28;46806;-17
2022/04/02 09:41:43;;;;;;;12.60;2.07;;;12.90;47.50;;;;;;5001372;28;46888;-23
2022/04/02 09:44:29;;;;;;;14.17;2.07;;;12.90;47.30;;;;;;4996154;28;47293;-17
2022/04/02 09:47:01;;;;;;;6.23;1.70;;;13.00;47.20;;;;;;5042670;28;49036;-17
2022/04/02 09:49:34;;;;;;;7.50;1.63;;;13.00;47.10;;;;;;5073204;28;47036;-19
2022/04/02 09:52:03;;;;;;;3.80;1.70;;;13.10;47.20;;;;;;5086213;28;47011;-19
2022/04/02 09:54:39;;;;;;;13.70;2.10;;;13.10;46.90;;;;;;5086396;28;47040;-19
2022/04/02 09:57:10;;;;;;;7.93;2.00;;;13.20;47.10;;;;;;5086120;28;46941;-19
2022/04/02 09:59:48;;;;;;;8.43;1.70;;;13.20;47.00;;;;;;5086099;28;46964;-19
2022/04/02 10:02:25;;;;;;;10.83;1.80;;;13.20;47.60;;;;;;5081359;28;47184;-19
2022/04/02 10:04:54;;;;;;;7.50;2.20;;;13.30;46.90;;;;;;5070246;28;46955;-19
2022/04/02 10:07:26;;;;;;;11.40;2.07;;;13.30;46.80;;;;;;5077197;28;47044;-20
2022/04/02 10:09:55;;;;;;;7.80;1.63;;;13.40;46.80;;;;;;5072335;28;46907;-19
2022/04/02 10:12:23;;;;;;;7.77;2.07;;;13.40;46.70;;;;;;5065149;28;47028;-19
2022/04/02 10:14:50;;;;;;;7.77;1.70;;;13.50;46.70;;;;;;5069096;28;46917;-18
2022/04/02 10:17:16;;;;;;;7.40;1.97;;;13.50;46.70;;;;;;5085769;28;48261;-18
2022/04/02 10:19:44;;;;;;;6.70;1.47;;;13.60;46.70;;;;;;5085910;28;46925;-19
2022/04/02 10:22:11;;;;;;;5.10;1.77;;;13.60;46.20;;;;;;5085002;27;47178;-19
2022/04/02 10:24:39;;;;;;;4.60;1.70;;;13.60;46.50;;;;;;5085793;28;46953;-19
2022/04/02 10:27:10;;;;;;;12.87;1.67;;;13.60;46.60;;;;;;5084796;28;48096;-19
2022/04/02 10:30:01;;;;;;;7.93;1.80;;;13.70;46.60;;;;;;5085199;28;47130;-19
2022/04/02 10:32:52;;;;;;;6.80;1.70;;;13.70;46.50;;;;;;5070358;28;46855;-18
2022/04/02 10:35:20;;;;;;;7.33;2.00;;;13.80;46.50;;;;;;5065605;28;46933;-24
2022/04/02 10:38:06;;;;;;;7.10;1.73;;;13.80;46.40;;;;;;5065362;28;47134;-24
2022/04/02 10:40:33;;;;;;;7.30;1.90;;;13.80;46.30;;;;;;5066462;28;47025;-24
2022/04/02 10:43:04;;;;;;;12.93;1.70;;;13.80;46.40;;;;;;5074243;28;47204;-24
2022/04/02 10:45:31;;;;;;;3.73;2.10;;;13.80;46.30;;;;;;5065455;28;47021;-19
2022/04/02 10:48:01;;;;;;;3.50;2.10;;;13.80;45.50;;;;;;5067729;28;48183;-18
2022/04/02 10:50:28;;;;;;;2.60;1.87;;;13.60;44.40;;;;;;5065126;28;46867;-18
2022/04/02 10:52:54;;;;;;;2.10;1.90;;;13.40;44.20;;;;;;5064744;28;46951;-24
2022/04/02 10:55:22;;;;;;;1.93;1.83;;;13.20;44.20;;;;;;5064700;28;46961;-18
2022/04/02 10:57:49;;;;;;;4.30;1.90;;;13.00;44.20;;;;;;5064501;28;48870;-24
2022/04/02 11:00:19;;;;;;;13.10;2.40;;;12.90;45.20;;;;;;5063283;28;46943;-17
2022/04/02 11:02:49;;;;;;;5.77;1.90;;;13.00;46.30;;;;;;5063369;28;47121;-22
2022/04/02 11:05:16;;;;;;;4.90;1.70;;;13.10;47.20;;;;;;5063595;28;47385;-28
2022/04/02 11:07:44;;;;;;;3.90;1.40;;;13.30;48.00;;;;;;5066451;28;47165;-23
2022/04/02 11:10:14;;;;;;;2.90;1.80;;;13.50;48.30;;;;;;5083464;28;47636;-20
2022/04/02 11:12:44;;;;;;;5.40;1.40;;;13.70;47.40;;;;;;5083171;28;47220;-20
2022/04/02 11:15:13;;;;;;;4.87;1.60;;;13.80;47.00;;;;;;5084750;28;46981;-19
2022/04/02 11:17:42;;;;;;;4.07;1.40;;;13.90;46.80;;;;;;5078660;28;47848;-20
2022/04/02 11:20:11;;;;;;;1.30;1.20;;;14.00;45.90;;;;;;5084803;28;47010;-21
2022/04/02 11:22:49;;;;;;;5.40;1.40;;;14.00;46.10;;;;;;5084366;28;47022;-20
2022/04/02 11:25:21;;;;;;;5.27;1.73;;;14.10;45.50;;;;;;5074891;28;47026;-19
2022/04/02 11:27:50;;;;;;;5.97;1.30;;;14.10;45.30;;;;;;5081030;28;47954;-20
2022/04/02 11:30:17;;;;;;;5.65;1.42;;;14.10;45.30;;;;;;5075901;28;47087;-19
2022/04/02 11:32:47;;;;;;;3.80;1.33;;;14.10;45.20;;;;;;5065213;28;46957;-19
2022/04/02 11:35:15;;;;;;;9.10;1.47;;;14.10;45.10;;;;;;5067925;28;47070;-19
2022/04/02 11:37:51;;;;;;;9.17;1.70;;;14.20;45.30;;;;;;5067598;28;47934;-19
2022/04/02 11:40:18;;;;;;;6.72;2.05;;;14.20;45.30;;;;;;5067548;28;46899;-19
2022/04/02 11:42:47;;;;;;;4.03;1.30;;;14.20;45.50;;;;;;5067547;28;46921;-19
2022/04/02 11:45:18;;;;;;;2.50;1.50;;;14.20;45.50;;;;;;5068295;28;47221;-19
2022/04/02 11:47:49;;;;;;;11.20;2.00;;;14.20;45.40;;;;;;5081791;28;48822;-27
2022/04/02 11:50:24;;;;;;;4.28;1.25;;;14.20;45.40;;;;;;5088356;28;46907;-20
2022/04/02 11:52:51;;;;;;;4.43;1.30;;;14.20;45.50;;;;;;5086491;28;46886;-27
2022/04/02 11:55:18;;;;;;;4.38;1.40;;;14.20;45.40;;;;;;5088534;28;46914;-19
2022/04/02 11:57:57;;;;;;;4.97;1.57;;;14.20;45.70;;;;;;5088030;28;46926;-20
2022/04/02 12:00:26;;;;;;;1.67;1.20;;;14.20;45.50;;;;;;5087981;28;47124;-19
2022/04/02 12:02:54;;;;;;;6.73;1.70;;;14.30;45.50;;;;;;5087803;28;46907;-27
2022/04/02 12:05:21;;;;;;;6.40;1.67;;;14.30;45.40;;;;;;5088221;28;47334;-26
2022/04/02 12:07:48;;;;;;;11.13;1.90;;;14.30;45.30;;;;;;5087791;28;48155;-26
2022/04/02 12:10:16;;;;;;;3.60;1.38;;;14.30;45.30;;;;;;5087916;28;46878;-27
2022/04/02 12:12:46;;;;;;;4.77;1.57;;;14.40;45.30;;;;;;5087515;28;46932;-27
2022/04/02 12:15:13;;;;;;;10.68;1.60;;;14.40;45.20;;;;;;5088167;28;46872;-26
2022/04/02 12:17:40;;;;;;;2.73;1.50;;;14.40;45.20;;;;;;5087730;28;46839;-26
2022/04/02 12:20:09;;;;;;;3.80;1.50;;;14.40;45.10;;;;;;5087484;28;46821;-26
2022/04/02 12:22:39;;;;;;;8.93;1.42;;;14.40;45.10;;;;;;5087865;28;47034;-26
2022/04/02 12:25:07;;;;;;;3.50;1.10;;;14.40;45.10;;;;;;5078353;28;47176;-27
2022/04/02 12:27:35;;;;;;;4.90;1.70;;;14.40;45.00;;;;;;5066717;28;47936;-27
2022/04/02 12:30:03;;;;;;;3.00;1.60;;;14.40;45.00;;;;;;5066695;28;46883;-27
2022/04/02 12:32:32;;;;;;;1.88;1.40;;;14.40;45.10;;;;;;5066850;28;46920;-27
2022/04/02 12:35:00;;;;;;;5.25;1.33;;;14.40;45.10;;;;;;5069341;28;47148;-20
2022/04/02 12:37:30;;;;;;;8.02;1.60;;;14.40;45.10;;;;;;5066692;28;48755;-20
2022/04/02 12:39:58;;;;;;;4.95;1.55;;;14.40;45.10;;;;;;5069983;28;46932;-19
2022/04/02 12:42:38;;;;;;;3.63;1.80;;;14.50;45.10;;;;;;5073184;27;47122;-19
2022/04/02 12:45:06;;;;;;;3.67;1.30;;;14.50;45.00;;;;;;5066162;28;47348;-26
2022/04/02 12:47:33;;;;;;;6.50;1.50;;;14.50;45.00;;;;;;5080001;27;48105;-19
2022/04/02 12:50:10;;;;;;;5.18;1.83;;;14.50;45.10;;;;;;5066316;28;47116;-27
2022/04/02 12:52:46;;;;;;;3.55;1.50;;;14.60;45.30;;;;;;5066520;28;46914;-26
2022/04/02 12:55:20;;;;;;;3.73;1.47;;;14.60;45.30;;;;;;5083213;28;46959;-19
2022/04/02 12:58:03;;;;;;;3.50;1.90;;;14.60;45.20;;;;;;5066795;28;49231;-27
2022/04/02 13:00:30;;;;;;;1.67;1.50;;;14.50;45.10;;;;;;5066668;28;47041;-26